YVV weather

Wiarton Airport
Wiarton, Ontario, Canada

Public forecast

Using degrees Celsius for public forecast. Weather courtesy of forecast.io.

Current aviation weather report (METAR) for Wiarton Airport

Retrieved 2019/10/22 00:00 UTC (18 minutes ago):

CYVV 220000Z 11010KT 8SM -RA FEW024 OVC052 12/08 A2978 RMK SC2NS6 SLP089 DENSITY ALT 800FT

Aviation forecast (TAF) for Wiarton Airport

Retrieved 2019/10/21 20:00 UTC (4 hours ago):

TAF CYVV 211949Z 2120/2123 06005KT P6SM BKN240 BECMG 2114/2116 11010G20KT FM212200 12015G25KT P6SM OVC040 TEMPO 2122/2123 P6SM -SHRA OVC020 RMK NXT FCST WILL BE ISSUED AT 221045Z